createdAt,value
2018-10-06T00:00:24.163Z,99.90
2018-10-06T00:02:52.891Z,99.90
2018-10-06T00:05:21.459Z,99.90
2018-10-06T00:07:49.971Z,99.90
2018-10-06T00:10:18.485Z,99.90
2018-10-06T00:12:47.018Z,99.90
2018-10-06T00:15:15.559Z,99.90
2018-10-06T00:17:44.088Z,99.90
2018-10-06T00:20:12.638Z,99.90
2018-10-06T00:22:41.164Z,99.90
2018-10-06T00:25:09.687Z,99.90
2018-10-06T00:27:38.235Z,99.90
2018-10-06T00:30:06.975Z,99.90
2018-10-06T00:32:35.485Z,99.90
2018-10-06T00:35:04.075Z,99.90
2018-10-06T00:37:32.616Z,99.90
2018-10-06T00:40:01.075Z,99.90
2018-10-06T00:42:29.581Z,99.90
2018-10-06T00:44:58.193Z,99.90
2018-10-06T00:47:26.693Z,99.90
2018-10-06T00:49:55.181Z,99.90
2018-10-06T00:52:23.711Z,99.90
2018-10-06T00:54:52.224Z,99.90
2018-10-06T00:57:20.728Z,99.90
2018-10-06T00:59:49.283Z,99.90
2018-10-06T01:02:17.816Z,99.90
2018-10-06T01:04:46.314Z,99.90
2018-10-06T01:07:14.862Z,99.90
2018-10-06T01:09:43.344Z,99.90
2018-10-06T01:12:11.863Z,99.90
2018-10-06T01:14:40.383Z,99.90
2018-10-06T01:17:08.883Z,99.90
2018-10-06T01:19:37.604Z,99.90
2018-10-06T01:22:06.599Z,99.90
2018-10-06T01:24:35.178Z,99.90
2018-10-06T01:27:03.705Z,99.90
2018-10-06T01:29:33.396Z,99.90
2018-10-06T01:32:03.693Z,99.90
2018-10-06T01:34:32.200Z,99.90
2018-10-06T01:37:01.072Z,99.90
2018-10-06T01:39:29.951Z,99.90
2018-10-06T01:41:58.504Z,99.90
2018-10-06T01:44:27.087Z,99.90
2018-10-06T01:46:55.568Z,99.90
2018-10-06T01:49:24.137Z,99.90
2018-10-06T01:51:52.661Z,99.90
2018-10-06T01:54:21.144Z,99.90
2018-10-06T01:56:49.764Z,99.90
2018-10-06T01:59:18.245Z,99.90
2018-10-06T02:01:46.753Z,99.90
2018-10-06T02:04:15.296Z,99.90
2018-10-06T02:06:43.812Z,99.90
2018-10-06T02:09:12.292Z,99.90
2018-10-06T02:11:40.866Z,99.90
2018-10-06T02:14:09.388Z,99.90
2018-10-06T02:16:37.896Z,99.90
2018-10-06T02:19:06.465Z,99.90
2018-10-06T02:21:34.983Z,99.90
2018-10-06T02:24:03.543Z,99.90
2018-10-06T02:26:32.103Z,99.90
2018-10-06T02:29:00.612Z,99.90
2018-10-06T02:31:29.141Z,99.90
2018-10-06T02:33:57.704Z,99.90
2018-10-06T02:36:26.300Z,99.90
2018-10-06T02:38:54.850Z,99.90
2018-10-06T02:41:23.383Z,99.90
2018-10-06T02:43:51.938Z,99.90
2018-10-06T02:46:20.468Z,99.90
2018-10-06T02:48:48.973Z,99.90
2018-10-06T02:51:17.500Z,99.90
2018-10-06T02:53:45.992Z,99.90
2018-10-06T02:56:14.532Z,99.90
2018-10-06T02:58:43.037Z,99.90
2018-10-06T03:01:11.595Z,99.90
2018-10-06T03:03:40.130Z,99.90
2018-10-06T03:06:08.660Z,99.90
2018-10-06T03:08:37.171Z,99.90
2018-10-06T03:11:05.775Z,99.90
2018-10-06T03:13:34.299Z,99.90
2018-10-06T03:16:02.805Z,99.90
2018-10-06T03:18:31.365Z,99.90
2018-10-06T03:20:59.860Z,99.90
2018-10-06T03:23:28.368Z,99.90
2018-10-06T03:25:56.908Z,99.90
2018-10-06T03:28:25.415Z,99.90
2018-10-06T03:30:53.967Z,99.90
2018-10-06T03:33:22.480Z,99.90
2018-10-06T03:35:51.007Z,99.90
2018-10-06T03:38:19.524Z,99.90
2018-10-06T03:40:48.073Z,99.90
2018-10-06T03:43:16.605Z,99.90
2018-10-06T03:45:45.148Z,99.90
2018-10-06T03:48:13.664Z,99.90
2018-10-06T03:50:42.209Z,99.90
2018-10-06T03:53:10.728Z,99.90
2018-10-06T03:55:39.223Z,99.90
2018-10-06T03:58:07.759Z,99.90
2018-10-06T04:00:36.263Z,99.90
2018-10-06T04:03:04.789Z,99.90
2018-10-06T04:05:33.309Z,99.90
2018-10-06T04:08:01.876Z,99.90
2018-10-06T04:10:30.407Z,99.90
2018-10-06T04:12:58.916Z,99.90
2018-10-06T04:15:27.475Z,99.90
2018-10-06T04:17:56.012Z,99.90
2018-10-06T04:20:24.580Z,99.90
2018-10-06T04:22:53.075Z,99.90
2018-10-06T04:25:21.612Z,99.90
2018-10-06T04:27:50.112Z,99.90
2018-10-06T04:30:18.675Z,99.90
2018-10-06T04:32:47.196Z,99.90
2018-10-06T04:35:15.741Z,99.90
2018-10-06T04:37:44.245Z,99.90
2018-10-06T04:40:12.736Z,99.90
2018-10-06T04:42:41.261Z,99.90
2018-10-06T04:45:09.783Z,99.90
2018-10-06T04:47:38.304Z,99.90
2018-10-06T04:50:06.865Z,99.90
2018-10-06T04:52:35.356Z,99.90
2018-10-06T04:55:03.976Z,99.90
2018-10-06T04:57:32.464Z,99.90
2018-10-06T05:00:01.001Z,99.90
2018-10-06T05:02:29.579Z,99.90
2018-10-06T05:04:58.144Z,99.90
2018-10-06T05:07:26.668Z,99.90
2018-10-06T05:09:55.166Z,99.90
2018-10-06T05:12:23.684Z,99.90
2018-10-06T05:14:52.230Z,99.90
2018-10-06T05:17:20.728Z,99.90
2018-10-06T05:19:49.267Z,99.90
2018-10-06T05:22:17.789Z,99.90
2018-10-06T05:24:46.296Z,99.90
2018-10-06T05:27:14.803Z,99.90
2018-10-06T05:29:43.331Z,99.90
2018-10-06T05:32:11.883Z,99.90
2018-10-06T05:34:40.396Z,99.90
2018-10-06T05:37:08.904Z,99.90
2018-10-06T05:39:37.423Z,99.90
2018-10-06T05:42:05.979Z,99.90
2018-10-06T05:44:34.511Z,99.90
2018-10-06T05:47:03.047Z,99.90
2018-10-06T05:49:31.560Z,99.90
2018-10-06T05:52:00.124Z,99.90
2018-10-06T05:54:28.647Z,99.90
2018-10-06T05:56:57.145Z,99.90
2018-10-06T05:59:25.656Z,99.90
2018-10-06T06:01:54.147Z,99.90
2018-10-06T06:04:22.627Z,99.90
2018-10-06T06:06:51.146Z,99.90
2018-10-06T06:09:19.635Z,99.90
2018-10-06T06:11:48.157Z,99.90
2018-10-06T06:14:16.667Z,99.90
2018-10-06T06:16:45.248Z,99.90
2018-10-06T06:19:13.817Z,99.90
2018-10-06T06:21:42.305Z,99.90
2018-10-06T06:24:10.829Z,99.90
2018-10-06T06:26:39.337Z,99.90
2018-10-06T06:29:07.844Z,99.90
2018-10-06T06:31:36.358Z,99.90
2018-10-06T06:34:04.869Z,99.90
2018-10-06T06:36:33.370Z,99.90
2018-10-06T06:39:01.901Z,99.90
2018-10-06T06:41:30.432Z,98.80
2018-10-06T06:43:58.988Z,96.60
2018-10-06T06:46:27.500Z,94.30
2018-10-06T06:48:56.061Z,95.20
2018-10-06T06:51:24.660Z,93.30
2018-10-06T06:53:53.160Z,92.20
2018-10-06T06:56:21.685Z,86.30
2018-10-06T06:58:50.259Z,85.40
2018-10-06T07:01:18.753Z,81.20
2018-10-06T07:03:47.281Z,83.20
2018-10-06T07:06:15.981Z,87.50
2018-10-06T07:08:44.499Z,89.40
2018-10-06T07:11:13.031Z,91.80
2018-10-06T07:13:41.537Z,95.90
2018-10-06T07:16:10.116Z,95.20
2018-10-06T07:18:39.443Z,90.90
2018-10-06T07:21:08.216Z,91.60
2018-10-06T07:23:36.696Z,92.90
2018-10-06T07:26:05.207Z,92.60
2018-10-06T07:28:33.712Z,94.60
2018-10-06T07:31:02.261Z,91.60
2018-10-06T07:33:30.787Z,87.40
2018-10-06T07:35:59.304Z,84.80
2018-10-06T07:38:27.840Z,89.50
2018-10-06T07:40:56.343Z,85.50
2018-10-06T07:43:24.871Z,92.20
2018-10-06T07:45:53.561Z,94.60
2018-10-06T07:48:22.083Z,94.90
2018-10-06T07:50:50.597Z,95.70
2018-10-06T07:53:19.136Z,94.50
2018-10-06T07:55:47.660Z,92.30
2018-10-06T07:58:16.158Z,85.60
2018-10-06T08:00:44.725Z,82.30
2018-10-06T08:03:13.246Z,82.00
2018-10-06T08:05:41.743Z,80.60
2018-10-06T08:08:10.397Z,84.20
2018-10-06T08:10:38.920Z,83.70
2018-10-06T08:13:07.500Z,74.00
2018-10-06T08:15:36.008Z,62.20
2018-10-06T08:18:04.523Z,57.30
2018-10-06T08:20:33.045Z,61.20
2018-10-06T08:23:01.593Z,62.30
2018-10-06T08:25:30.961Z,66.40
2018-10-06T08:27:59.524Z,70.30
2018-10-06T08:30:28.041Z,71.50
2018-10-06T08:32:56.573Z,75.50
2018-10-06T08:35:25.104Z,75.30
2018-10-06T08:37:53.619Z,75.50
2018-10-06T08:40:22.137Z,73.50
2018-10-06T08:42:50.699Z,73.60
2018-10-06T08:45:19.200Z,73.00
2018-10-06T08:47:47.720Z,66.10
2018-10-06T08:50:16.474Z,66.30
2018-10-06T08:52:44.988Z,67.80
2018-10-06T08:55:13.542Z,68.20
2018-10-06T08:57:42.054Z,66.70
2018-10-06T09:00:10.595Z,61.50
2018-10-06T09:02:39.504Z,61.40
2018-10-06T09:05:08.023Z,60.20
2018-10-06T09:07:36.539Z,60.20
2018-10-06T09:10:05.392Z,61.70
2018-10-06T09:12:36.643Z,65.00
2018-10-06T09:15:05.878Z,62.60
2018-10-06T09:17:34.384Z,61.90
2018-10-06T09:20:02.906Z,62.60
2018-10-06T09:22:31.454Z,62.40
2018-10-06T09:25:06.859Z,62.90
2018-10-06T09:27:35.372Z,64.90
2018-10-06T09:30:03.965Z,65.30
2018-10-06T09:32:32.475Z,64.40
2018-10-06T09:35:00.972Z,61.80
2018-10-06T09:37:29.492Z,61.30
2018-10-06T09:39:58.461Z,63.10
2018-10-06T09:42:27.069Z,65.20
2018-10-06T09:44:55.540Z,60.10
2018-10-06T09:47:24.049Z,57.20
2018-10-06T09:49:52.563Z,54.70
2018-10-06T09:52:21.136Z,54.00
2018-10-06T09:54:49.656Z,53.10
2018-10-06T09:57:18.153Z,58.50
2018-10-06T09:59:47.160Z,57.00
2018-10-06T10:02:21.132Z,48.10
2018-10-06T10:04:49.668Z,53.10
2018-10-06T10:07:18.179Z,53.30
2018-10-06T10:09:46.698Z,58.60
2018-10-06T10:12:15.238Z,52.50
2018-10-06T10:14:43.763Z,54.20
2018-10-06T10:17:12.334Z,51.30
2018-10-06T10:19:40.759Z,55.30
2018-10-06T10:22:09.369Z,58.20
2018-10-06T10:24:37.785Z,52.50
2018-10-06T10:27:06.334Z,50.30
2018-10-06T10:29:34.841Z,53.80
2018-10-06T10:32:03.417Z,58.70
2018-10-06T10:34:31.956Z,52.20
2018-10-06T10:37:00.430Z,50.50
2018-10-06T10:39:29.026Z,56.10
2018-10-06T10:41:57.499Z,56.70
2018-10-06T10:44:26.079Z,53.60
2018-10-06T10:46:54.577Z,54.50
2018-10-06T10:49:23.130Z,51.60
2018-10-06T10:51:51.605Z,51.70
2018-10-06T10:54:20.124Z,52.20
2018-10-06T10:56:48.636Z,50.40
2018-10-06T10:59:17.152Z,51.50
2018-10-06T11:01:45.679Z,50.70
2018-10-06T11:04:14.212Z,51.30
2018-10-06T11:06:42.773Z,49.10
2018-10-06T11:09:11.301Z,52.50
2018-10-06T11:11:39.800Z,50.60
2018-10-06T11:14:08.312Z,53.70
2018-10-06T11:16:36.853Z,56.20
2018-10-06T11:19:05.353Z,58.20
2018-10-06T11:21:33.921Z,57.20
2018-10-06T11:24:02.432Z,60.50
2018-10-06T11:26:30.940Z,57.60
2018-10-06T11:28:59.463Z,57.60
2018-10-06T11:31:28.400Z,61.60
2018-10-06T11:33:56.975Z,57.80
2018-10-06T11:36:25.484Z,56.20
2018-10-06T11:38:54.023Z,51.80
2018-10-06T11:41:22.530Z,56.10
2018-10-06T11:43:51.068Z,53.20
2018-10-06T11:46:19.558Z,53.30
2018-10-06T11:48:48.073Z,47.70
2018-10-06T11:51:16.591Z,52.40
2018-10-06T11:53:45.082Z,50.20
2018-10-06T11:56:13.616Z,53.20
2018-10-06T11:58:42.112Z,52.70
2018-10-06T12:01:10.649Z,52.10
2018-10-06T12:03:39.172Z,52.60
2018-10-06T12:06:07.725Z,51.30
2018-10-06T12:08:36.271Z,50.00
2018-10-06T12:11:04.863Z,49.20
2018-10-06T12:13:33.359Z,48.70
2018-10-06T12:16:01.900Z,46.00
2018-10-06T12:18:30.493Z,50.50
2018-10-06T12:20:58.995Z,50.60
2018-10-06T12:23:27.536Z,51.10
2018-10-06T12:25:56.084Z,48.10
2018-10-06T12:28:24.596Z,48.30
2018-10-06T12:30:53.344Z,48.00
2018-10-06T12:33:21.892Z,49.40
2018-10-06T12:35:50.384Z,49.90
2018-10-06T12:38:19.087Z,48.80
2018-10-06T12:40:47.627Z,51.20
2018-10-06T12:43:16.135Z,46.40
2018-10-06T12:45:44.697Z,47.80
2018-10-06T12:48:13.205Z,44.70
2018-10-06T12:50:41.737Z,48.60
2018-10-06T12:53:10.248Z,48.40
2018-10-06T12:55:38.769Z,50.90
2018-10-06T12:58:07.279Z,52.40
2018-10-06T13:00:35.809Z,48.80
2018-10-06T13:03:04.352Z,50.80
2018-10-06T13:05:33.024Z,48.80
2018-10-06T13:08:01.551Z,49.80
2018-10-06T13:10:30.044Z,51.10
2018-10-06T13:12:58.557Z,52.00
2018-10-06T13:15:27.071Z,52.90
2018-10-06T13:17:55.574Z,51.20
2018-10-06T13:20:24.071Z,51.30
2018-10-06T13:22:52.595Z,49.30
2018-10-06T13:25:21.055Z,49.30
2018-10-06T13:27:49.604Z,47.70
2018-10-06T13:30:18.172Z,47.80
2018-10-06T13:32:46.746Z,48.50
2018-10-06T13:35:15.316Z,53.00
2018-10-06T13:37:43.824Z,51.80
2018-10-06T13:40:12.384Z,50.70
2018-10-06T13:42:40.916Z,50.10
2018-10-06T13:45:09.436Z,48.50
2018-10-06T13:47:37.993Z,49.00
2018-10-06T13:50:06.616Z,47.70
2018-10-06T13:52:35.143Z,47.00
2018-10-06T13:55:03.705Z,49.90
2018-10-06T13:57:32.252Z,50.20
2018-10-06T14:00:00.816Z,51.90
2018-10-06T14:02:29.414Z,53.90
2018-10-06T14:04:57.956Z,52.10
2018-10-06T14:07:26.510Z,52.60
2018-10-06T14:09:55.505Z,47.70
2018-10-06T14:12:24.048Z,48.10
2018-10-06T14:14:52.580Z,47.90
2018-10-06T14:17:21.095Z,50.00
2018-10-06T14:19:49.673Z,49.20
2018-10-06T14:22:18.207Z,49.50
2018-10-06T14:24:46.723Z,53.50
2018-10-06T14:27:15.247Z,51.20
2018-10-06T14:29:43.783Z,54.40
2018-10-06T14:32:13.612Z,51.60
2018-10-06T14:34:42.253Z,52.40
2018-10-06T14:37:10.768Z,54.20
2018-10-06T14:39:39.301Z,52.20
2018-10-06T14:42:08.094Z,54.50
2018-10-06T14:44:36.661Z,53.80
2018-10-06T14:47:05.237Z,55.10
2018-10-06T14:49:33.743Z,56.50
2018-10-06T14:52:02.296Z,55.10
2018-10-06T14:54:30.810Z,52.10
2018-10-06T14:56:59.336Z,53.20
2018-10-06T14:59:27.848Z,50.60
2018-10-06T15:01:56.343Z,53.10
2018-10-06T15:04:25.042Z,53.70
2018-10-06T15:06:53.552Z,51.80
2018-10-06T15:09:22.032Z,55.50
2018-10-06T15:11:50.511Z,56.90
2018-10-06T15:14:19.017Z,55.30
2018-10-06T15:16:47.548Z,57.40
2018-10-06T15:19:16.063Z,57.30
2018-10-06T15:21:44.605Z,57.20
2018-10-06T15:24:13.202Z,59.50
2018-10-06T15:26:41.703Z,60.60
2018-10-06T15:29:10.291Z,60.40
2018-10-06T15:31:38.778Z,62.10
2018-10-06T15:34:07.303Z,58.90
2018-10-06T15:36:35.878Z,60.70
2018-10-06T15:39:06.491Z,63.50
2018-10-06T15:41:34.983Z,65.50
2018-10-06T15:44:03.497Z,64.90
2018-10-06T15:46:32.079Z,65.10
2018-10-06T15:49:00.586Z,67.20
2018-10-06T15:51:29.131Z,67.30
2018-10-06T15:53:57.652Z,67.90
2018-10-06T15:56:26.201Z,66.70
2018-10-06T15:58:54.693Z,67.60
2018-10-06T16:01:23.188Z,68.30
2018-10-06T16:03:51.689Z,70.50
2018-10-06T16:06:20.196Z,70.40
2018-10-06T16:08:48.811Z,71.30
2018-10-06T16:11:17.335Z,73.30
2018-10-06T16:13:45.847Z,72.30
2018-10-06T16:16:14.356Z,74.80
2018-10-06T16:18:42.915Z,75.60
2018-10-06T16:21:11.418Z,76.60
2018-10-06T16:23:40.079Z,77.80
2018-10-06T16:26:08.620Z,79.50
2018-10-06T16:28:37.148Z,80.70
2018-10-06T16:31:05.990Z,80.80
2018-10-06T16:33:34.561Z,83.70
2018-10-06T16:36:03.122Z,85.30
2018-10-06T16:38:33.158Z,88.10
2018-10-06T16:41:01.687Z,90.70
2018-10-06T16:43:30.194Z,91.10
2018-10-06T16:45:58.721Z,91.60
2018-10-06T16:48:27.199Z,90.70
2018-10-06T16:50:55.717Z,89.70
2018-10-06T16:53:24.286Z,92.80
2018-10-06T16:55:52.783Z,94.00
2018-10-06T16:58:21.327Z,95.60
2018-10-06T17:00:49.818Z,97.40
2018-10-06T17:03:18.854Z,99.40
2018-10-06T17:05:47.354Z,99.30
2018-10-06T17:08:15.913Z,99.90
2018-10-06T17:10:44.418Z,99.90
2018-10-06T17:13:12.920Z,99.60
2018-10-06T17:15:41.416Z,99.90
2018-10-06T17:18:09.899Z,99.90
2018-10-06T17:20:38.435Z,99.90
2018-10-06T17:23:06.984Z,99.90
2018-10-06T17:25:35.548Z,99.90
2018-10-06T17:28:04.079Z,99.90
2018-10-06T17:30:32.631Z,99.90
2018-10-06T17:33:01.195Z,99.90
2018-10-06T17:35:29.720Z,99.90
2018-10-06T17:37:58.256Z,99.90
2018-10-06T17:40:26.749Z,99.90
2018-10-06T17:42:55.298Z,99.90
2018-10-06T17:45:23.877Z,99.90
2018-10-06T17:47:52.421Z,99.90
2018-10-06T17:50:21.269Z,99.90
2018-10-06T17:52:49.741Z,99.90
2018-10-06T17:55:18.258Z,99.90
2018-10-06T17:57:46.777Z,99.90
2018-10-06T18:00:15.290Z,99.90
2018-10-06T18:02:43.800Z,99.90
2018-10-06T18:05:12.337Z,99.90
2018-10-06T18:07:40.824Z,99.90
2018-10-06T18:10:09.375Z,99.90
2018-10-06T18:12:37.844Z,99.90
2018-10-06T18:15:06.477Z,99.90
2018-10-06T18:17:35.200Z,99.90
2018-10-06T18:20:03.877Z,99.90
2018-10-06T18:22:32.364Z,99.90
2018-10-06T18:25:00.904Z,99.90
2018-10-06T18:27:29.446Z,99.90
2018-10-06T18:29:57.964Z,99.90
2018-10-06T18:32:26.556Z,99.90
2018-10-06T18:34:55.047Z,99.90
2018-10-06T18:37:23.682Z,99.90
2018-10-06T18:39:52.120Z,99.90
2018-10-06T18:42:20.620Z,99.90
2018-10-06T18:44:49.115Z,99.90
2018-10-06T18:47:17.627Z,99.90
2018-10-06T18:49:46.161Z,99.90
2018-10-06T18:52:14.711Z,99.90
2018-10-06T18:54:43.222Z,99.90
2018-10-06T18:57:11.724Z,99.90
2018-10-06T18:59:40.225Z,99.90
2018-10-06T19:02:08.808Z,99.90
2018-10-06T19:04:37.355Z,99.90
2018-10-06T19:07:05.985Z,99.90
2018-10-06T19:09:34.534Z,99.90
2018-10-06T19:12:03.035Z,99.90
2018-10-06T19:14:31.565Z,99.90
2018-10-06T19:17:00.064Z,99.90
2018-10-06T19:19:28.596Z,99.90
2018-10-06T19:21:57.133Z,99.90
2018-10-06T19:24:25.634Z,99.90
2018-10-06T19:26:54.164Z,99.90
2018-10-06T19:29:22.684Z,99.90
2018-10-06T19:31:51.238Z,99.90
2018-10-06T19:34:19.723Z,99.90
2018-10-06T19:36:48.247Z,99.90
2018-10-06T19:39:16.787Z,99.90
2018-10-06T19:41:45.284Z,99.90
2018-10-06T19:44:13.749Z,99.90
2018-10-06T19:46:42.256Z,99.90
2018-10-06T19:49:10.781Z,99.90
2018-10-06T19:51:39.282Z,99.90
2018-10-06T19:54:07.881Z,99.90
2018-10-06T19:56:36.368Z,99.90
2018-10-06T19:59:04.872Z,99.90
2018-10-06T20:01:33.397Z,99.90
2018-10-06T20:04:02.008Z,99.90
2018-10-06T20:06:30.484Z,99.90
2018-10-06T20:08:59.020Z,99.90
2018-10-06T20:11:27.538Z,99.90
2018-10-06T20:13:56.055Z,99.90
2018-10-06T20:16:24.663Z,99.90
2018-10-06T20:18:53.185Z,99.90
2018-10-06T20:21:21.690Z,99.90
2018-10-06T20:23:50.201Z,99.90
2018-10-06T20:26:18.728Z,99.90
2018-10-06T20:28:47.239Z,99.90
2018-10-06T20:31:15.801Z,99.90
2018-10-06T20:33:44.279Z,99.90
2018-10-06T20:36:12.793Z,99.90
2018-10-06T20:38:41.303Z,99.90
2018-10-06T20:41:09.832Z,99.90
2018-10-06T20:43:38.339Z,99.90
2018-10-06T20:46:07.292Z,99.90
2018-10-06T20:48:35.824Z,99.90
2018-10-06T20:51:04.328Z,99.90
2018-10-06T20:53:32.873Z,99.90
2018-10-06T20:56:01.384Z,99.90
2018-10-06T20:58:29.945Z,99.90
2018-10-06T21:00:58.468Z,99.90
2018-10-06T21:03:26.985Z,99.90
2018-10-06T21:05:55.535Z,99.90
2018-10-06T21:08:24.039Z,99.90
2018-10-06T21:10:52.569Z,99.90
2018-10-06T21:13:21.085Z,99.90
2018-10-06T21:15:49.624Z,99.90
2018-10-06T21:18:18.193Z,99.90
2018-10-06T21:20:46.646Z,99.90
2018-10-06T21:23:15.148Z,99.90
2018-10-06T21:25:43.649Z,99.90
2018-10-06T21:28:12.184Z,99.90
2018-10-06T21:30:40.720Z,99.90
2018-10-06T21:33:09.273Z,99.90
2018-10-06T21:35:37.810Z,99.90
2018-10-06T21:38:06.556Z,99.90
2018-10-06T21:40:35.068Z,99.90
2018-10-06T21:43:03.597Z,99.90
2018-10-06T21:45:32.091Z,99.90
2018-10-06T21:48:00.651Z,99.90
2018-10-06T21:50:29.215Z,99.90
2018-10-06T21:52:57.737Z,99.90
2018-10-06T21:55:26.224Z,99.90
2018-10-06T21:57:54.764Z,99.90
2018-10-06T22:00:23.303Z,99.90
2018-10-06T22:02:51.826Z,99.90
2018-10-06T22:05:20.377Z,99.90
2018-10-06T22:07:48.907Z,99.90
2018-10-06T22:10:17.468Z,99.90
2018-10-06T22:12:45.968Z,99.90
2018-10-06T22:15:14.562Z,99.90
2018-10-06T22:17:43.044Z,99.90
2018-10-06T22:20:11.609Z,99.90
2018-10-06T22:22:40.155Z,99.90
2018-10-06T22:25:08.680Z,99.90
2018-10-06T22:27:37.214Z,99.90
2018-10-06T22:30:06.792Z,99.90
2018-10-06T22:32:35.328Z,99.90
2018-10-06T22:35:03.858Z,99.90
2018-10-06T22:37:32.689Z,99.90
2018-10-06T22:40:01.194Z,99.90
2018-10-06T22:42:29.698Z,99.90
2018-10-06T22:44:58.240Z,99.90
2018-10-06T22:47:26.792Z,99.90
2018-10-06T22:49:55.319Z,99.90
2018-10-06T22:52:23.860Z,99.90
2018-10-06T22:54:52.426Z,99.90
2018-10-06T22:57:20.966Z,99.90
2018-10-06T22:59:49.536Z,99.90
2018-10-06T23:02:18.071Z,99.90
2018-10-06T23:04:46.551Z,99.90
2018-10-06T23:07:15.092Z,99.90
2018-10-06T23:09:43.608Z,99.90
2018-10-06T23:12:12.127Z,99.90
2018-10-06T23:14:40.631Z,99.90
2018-10-06T23:17:09.144Z,99.90
2018-10-06T23:19:37.636Z,99.90
2018-10-06T23:22:06.244Z,99.90
2018-10-06T23:24:34.737Z,99.90
2018-10-06T23:27:03.292Z,99.90
2018-10-06T23:29:31.813Z,99.90
2018-10-06T23:32:00.315Z,99.90
2018-10-06T23:34:28.876Z,99.90
2018-10-06T23:36:57.368Z,99.90
2018-10-06T23:39:25.902Z,99.90
2018-10-06T23:41:54.437Z,99.90
2018-10-06T23:44:22.963Z,99.90
2018-10-06T23:46:51.462Z,99.90
2018-10-06T23:49:19.992Z,99.90
2018-10-06T23:51:48.505Z,99.90
2018-10-06T23:54:17.059Z,99.90
2018-10-06T23:56:45.598Z,99.90
2018-10-06T23:59:14.100Z,99.90
